Time;durP1;ratioP1;P1;durP2;ratioP2;P2;SDS_P1;SDS_P2;PMS_P1;PMS_P2;Temp;Humidity;BMP_temperature;BMP_pressure;BME280_temperature;BME280_humidity;BME280_pressure;Samples;Min_cycle;Max_cycle;Signal;HPM_P1;HPM_P2
2022/01/11 00:00:30;;;;;;;;;;;;;;;;;;2086563;28;19913;-66
2022/01/11 00:01:49;;;;;;;;;;;;;;;;;;2086838;28;19917;-67
2022/01/11 00:03:08;;;;;;;;;;;;;;;;;;2087794;28;19921;-66
2022/01/11 00:04:29;;;;;;;;;;;;;;;;;;2088342;28;19909;-67
2022/01/11 00:05:55;;;;;;;;;;;;;;;;;;2087478;28;19917;-66
2022/01/11 00:07:16;;;;;;;;;;;;;;;;;;2085605;28;19996;-67
2022/01/11 00:08:37;;;;;;;;;;;;;;;;;;2086644;28;20401;-67
2022/01/11 00:09:57;;;;;;;;;;;;;;;;;;2086922;28;19917;-67
2022/01/11 00:11:16;;;;;;;;;;;;;;;;;;2086994;28;19909;-66
2022/01/11 00:12:35;;;;;;;;;;;;;;;;;;2086503;28;20538;-67
2022/01/11 00:13:54;;;;;;;;;;;;;;;;;;2087017;28;19992;-67
2022/01/11 00:15:12;;;;;;;;;;;;;;;;;;2089298;28;19909;-66
2022/01/11 00:16:31;;;;;;;;;;;;;;;;;;2088412;28;19909;-67
2022/01/11 00:17:50;;;;;;;;;;;;;;;;;;2087181;28;19917;-66
2022/01/11 00:19:09;;;;;;;;;;;;;;;;;;2089731;28;20308;-66
2022/01/11 00:20:28;;;;;;;;;;;;;;;;;;2087771;28;19913;-66
2022/01/11 00:21:49;;;;;;;;;;;;;;;;;;2087774;28;20310;-66
2022/01/11 00:24:30;;;;;;;;;;;;;;;;;;2089034;28;20363;-66
2022/01/11 00:25:50;;;;;;;;;;;;;;;;;;2089464;28;19909;-66
2022/01/11 00:27:09;;;;;;;;;;;;;;;;;;2089105;28;19999;-66
2022/01/11 00:28:29;;;;;;;;;;;;;;;;;;2089071;28;20040;-66
2022/01/11 00:29:51;;;;;;;;;;;;;;;;;;2090067;28;19917;-66
2022/01/11 00:31:10;;;;;;;;;;;;;;;;;;2090034;28;20317;-66
2022/01/11 00:32:39;;;;;;;;;;;;;;;;;;2087399;28;19913;-66
2022/01/11 00:33:58;;;;;;;;;;;;;;;;;;2091146;28;19913;-66
2022/01/11 00:35:21;;;;;;;;;;;;;;;;;;2088843;28;19909;-66
2022/01/11 00:36:42;;;;;;;;;;;;;;;;;;2088832;28;20301;-66
2022/01/11 00:38:01;;;;;;;;;;;;;;;;;;2087983;28;19917;-66
2022/01/11 00:39:19;;;;;;;;;;;;;;;;;;2087490;28;20283;-66
2022/01/11 00:40:38;;;;;;;;;;;;;;;;;;2089399;28;19916;-66
2022/01/11 00:41:57;;;;;;;;;;;;;;;;;;2090539;28;19948;-66
2022/01/11 00:43:16;;;;;;;;;;;;;;;;;;2088882;28;19928;-65
2022/01/11 00:44:35;;;;;;;;;;;;;;;;;;2088140;28;19939;-66
2022/01/11 00:45:54;;;;;;;;;;;;;;;;;;2088354;28;19916;-66
2022/01/11 00:47:13;;;;;;;;;;;;;;;;;;2089232;28;20335;-67
2022/01/11 00:48:32;;;;;;;;;;;;;;;;;;2091538;28;20381;-66
2022/01/11 00:49:53;;;;;;;;;;;;;;;;;;2086908;28;19913;-66
2022/01/11 00:51:12;;;;;;;;;;;;;;;;;;2089323;28;20716;-66
2022/01/11 00:52:31;;;;;;;;;;;;;;;;;;2089630;28;19912;-66
2022/01/11 00:53:50;;;;;;;;;;;;;;;;;;2088770;28;19913;-66
2022/01/11 00:55:09;;;;;;;;;;;;;;;;;;2086057;28;19913;-66
2022/01/11 00:56:27;;;;;;;;;;;;;;;;;;2089067;28;19924;-66
2022/01/11 00:57:47;;;;;;;;;;;;;;;;;;2087973;28;20013;-66
2022/01/11 00:59:05;;;;;;;;;;;;;;;;;;2088035;28;20359;-66
2022/01/11 01:00:25;;;;;;;;;;;;;;;;;;2086951;28;20528;-67
2022/01/11 01:01:43;;;;;;;;;;;;;;;;;;2086112;28;19913;-66
2022/01/11 01:03:02;;;;;;;;;;;;;;;;;;2085649;28;19913;-67
2022/01/11 01:04:21;;;;;;;;;;;;;;;;;;2086668;28;20328;-66
2022/01/11 01:05:40;;;;;;;;;;;;;;;;;;2085140;28;19913;-66
2022/01/11 01:06:59;;;;;;;;;;;;;;;;;;2086059;28;20378;-66
2022/01/11 01:08:18;;;;;;;;;;;;;;;;;;2086723;28;19925;-67
2022/01/11 01:09:59;;;;;;;;;;;;;;;;;;2086925;28;20000;-66
2022/01/11 01:11:15;;;;;;;;;;;;;;;;;;2085928;28;19913;-66
2022/01/11 01:12:34;;;;;;;;;;;;;;;;;;2086340;28;19925;-66
2022/01/11 01:13:53;;;;;;;;;;;;;;;;;;2087833;28;19913;-66
2022/01/11 01:15:12;;;;;;;;;;;;;;;;;;2087229;28;19916;-66
2022/01/11 01:16:31;;;;;;;;;;;;;;;;;;2087186;28;19913;-66
2022/01/11 01:17:50;;;;;;;;;;;;;;;;;;2084990;28;19909;-66
2022/01/11 01:19:09;;;;;;;;;;;;;;;;;;2087565;28;20044;-67
2022/01/11 01:20:28;;;;;;;;;;;;;;;;;;2086237;28;19955;-66
2022/01/11 01:21:49;;;;;;;;;;;;;;;;;;2085869;28;19912;-66
2022/01/11 01:23:08;;;;;;;;;;;;;;;;;;2086689;28;20608;-66
2022/01/11 01:24:27;;;;;;;;;;;;;;;;;;2086789;28;20008;-67
2022/01/11 01:25:46;;;;;;;;;;;;;;;;;;2086119;28;19952;-67
2022/01/11 01:27:04;;;;;;;;;;;;;;;;;;2086057;28;19912;-66
2022/01/11 01:28:23;;;;;;;;;;;;;;;;;;2087512;28;19964;-66
2022/01/11 01:29:42;;;;;;;;;;;;;;;;;;2086152;28;19921;-67
2022/01/11 01:31:01;;;;;;;;;;;;;;;;;;2087988;28;19909;-66
2022/01/11 01:32:20;;;;;;;;;;;;;;;;;;2085678;28;19913;-67
2022/01/11 01:33:39;;;;;;;;;;;;;;;;;;2088975;28;19913;-66
2022/01/11 01:35:02;;;;;;;;;;;;;;;;;;2087117;28;20286;-67
2022/01/11 01:36:21;;;;;;;;;;;;;;;;;;2087467;28;20282;-66
2022/01/11 01:37:40;;;;;;;;;;;;;;;;;;2087150;28;20274;-66
2022/01/11 01:38:58;;;;;;;;;;;;;;;;;;2087396;28;19920;-66
2022/01/11 01:40:17;;;;;;;;;;;;;;;;;;2087495;28;19921;-67
2022/01/11 01:41:41;;;;;;;;;;;;;;;;;;2088149;28;19909;-68
2022/01/11 01:43:00;;;;;;;;;;;;;;;;;;2087428;28;19913;-67
2022/01/11 01:44:19;;;;;;;;;;;;;;;;;;2088693;28;19917;-67
2022/01/11 01:45:38;;;;;;;;;;;;;;;;;;2087686;28;19912;-67
2022/01/11 01:46:57;;;;;;;;;;;;;;;;;;2087675;28;19956;-67
2022/01/11 01:48:16;;;;;;;;;;;;;;;;;;2088041;28;19963;-67
2022/01/11 01:49:38;;;;;;;;;;;;;;;;;;2088620;28;19972;-67
2022/01/11 01:50:57;;;;;;;;;;;;;;;;;;2087771;28;19913;-67
2022/01/11 01:52:15;;;;;;;;;;;;;;;;;;2086834;28;19909;-67
2022/01/11 01:53:34;;;;;;;;;;;;;;;;;;2090030;28;19912;-67
2022/01/11 01:54:53;;;;;;;;;;;;;;;;;;2087312;28;19917;-67
2022/01/11 01:56:12;;;;;;;;;;;;;;;;;;2086926;28;19909;-67
2022/01/11 01:57:31;;;;;;;;;;;;;;;;;;2086702;28;20394;-67
2022/01/11 01:58:50;;;;;;;;;;;;;;;;;;2091090;28;20358;-67
2022/01/11 02:00:12;;;;;;;;;;;;;;;;;;2088280;28;19917;-67
2022/01/11 02:01:35;;;;;;;;;;;;;;;;;;2086988;28;19913;-66
2022/01/11 02:02:54;;;;;;;;;;;;;;;;;;2091151;28;19917;-67
2022/01/11 02:04:13;;;;;;;;;;;;;;;;;;2089398;28;19999;-67
2022/01/11 02:05:31;;;;;;;;;;;;;;;;;;2087161;28;19909;-67
2022/01/11 02:06:51;;;;;;;;;;;;;;;;;;2088084;28;20275;-67
2022/01/11 02:08:10;;;;;;;;;;;;;;;;;;2086171;28;20370;-67
2022/01/11 02:09:29;;;;;;;;;;;;;;;;;;2088416;28;19916;-67
2022/01/11 02:10:48;;;;;;;;;;;;;;;;;;2087380;28;19917;-66
2022/01/11 02:12:07;;;;;;;;;;;;;;;;;;2085158;28;19912;-67
2022/01/11 02:13:25;;;;;;;;;;;;;;;;;;2085997;28;20007;-66
2022/01/11 02:14:44;;;;;;;;;;;;;;;;;;2085483;28;19913;-66
2022/01/11 02:16:04;;;;;;;;;;;;;;;;;;2084752;28;20390;-67
2022/01/11 02:17:23;;;;;;;;;;;;;;;;;;2084448;28;19912;-66
2022/01/11 02:18:44;;;;;;;;;;;;;;;;;;2081033;28;19913;-66
2022/01/11 02:20:03;;;;;;;;;;;;;;;;;;2086484;28;19921;-67
2022/01/11 02:21:22;;;;;;;;;;;;;;;;;;2086745;28;20011;-67
2022/01/11 02:22:40;;;;;;;;;;;;;;;;;;2090374;28;19999;-67
2022/01/11 02:23:59;;;;;;;;;;;;;;;;;;2089544;28;19917;-67
2022/01/11 02:25:18;;;;;;;;;;;;;;;;;;2087988;28;19913;-67
2022/01/11 02:26:37;;;;;;;;;;;;;;;;;;2086119;28;19999;-67
2022/01/11 02:27:56;;;;;;;;;;;;;;;;;;2085732;28;19909;-67
2022/01/11 02:29:15;;;;;;;;;;;;;;;;;;2086802;28;20366;-67
2022/01/11 02:30:34;;;;;;;;;;;;;;;;;;2086203;28;19913;-67
2022/01/11 02:31:53;;;;;;;;;;;;;;;;;;2086713;28;20000;-67
2022/01/11 02:33:56;;;;;;;;;;;;;;;;;;2084667;28;19910;-66
2022/01/11 02:34:54;;;;;;;;;;;;;;;;;;2086939;28;19921;-66
2022/01/11 02:36:13;;;;;;;;;;;;;;;;;;2085343;28;19913;-67
2022/01/11 02:37:32;;;;;;;;;;;;;;;;;;2086874;28;19913;-66
2022/01/11 02:38:52;;;;;;;;;;;;;;;;;;2087755;28;19920;-67
2022/01/11 02:40:11;;;;;;;;;;;;;;;;;;2089967;28;19924;-66
2022/01/11 02:41:30;;;;;;;;;;;;;;;;;;2087873;28;19913;-66
2022/01/11 02:42:49;;;;;;;;;;;;;;;;;;2085661;28;19955;-66
2022/01/11 02:44:08;;;;;;;;;;;;;;;;;;2088921;28;19912;-66
2022/01/11 02:45:27;;;;;;;;;;;;;;;;;;2087879;28;20310;-66
2022/01/11 02:46:46;;;;;;;;;;;;;;;;;;2087761;28;19913;-66
2022/01/11 02:48:04;;;;;;;;;;;;;;;;;;2084814;28;20223;-66
2022/01/11 02:49:23;;;;;;;;;;;;;;;;;;2088586;28;19925;-66
2022/01/11 02:50:42;;;;;;;;;;;;;;;;;;2089167;28;19913;-66
2022/01/11 02:52:01;;;;;;;;;;;;;;;;;;2087984;28;19908;-66
2022/01/11 02:53:20;;;;;;;;;;;;;;;;;;2085701;28;19917;-66
2022/01/11 02:54:39;;;;;;;;;;;;;;;;;;2086909;28;19913;-66
2022/01/11 02:55:58;;;;;;;;;;;;;;;;;;2086144;28;19975;-66
2022/01/11 02:57:17;;;;;;;;;;;;;;;;;;2087300;28;19909;-66
2022/01/11 02:58:36;;;;;;;;;;;;;;;;;;2085562;28;19912;-66
2022/01/11 02:59:54;;;;;;;;;;;;;;;;;;2086811;28;19913;-66
2022/01/11 03:01:13;;;;;;;;;;;;;;;;;;2089261;28;20350;-66
2022/01/11 03:02:32;;;;;;;;;;;;;;;;;;2085922;28;19909;-66
2022/01/11 03:03:51;;;;;;;;;;;;;;;;;;2085529;28;19909;-66
2022/01/11 03:05:10;;;;;;;;;;;;;;;;;;2088360;28;19917;-66
2022/01/11 03:06:29;;;;;;;;;;;;;;;;;;2088907;28;19913;-67
2022/01/11 03:07:48;;;;;;;;;;;;;;;;;;2086020;28;19995;-67
2022/01/11 03:09:07;;;;;;;;;;;;;;;;;;2085900;28;19925;-67
2022/01/11 03:11:45;;;;;;;;;;;;;;;;;;2087266;28;19913;-67
2022/01/11 03:13:04;;;;;;;;;;;;;;;;;;2087111;28;19956;-66
2022/01/11 03:14:22;;;;;;;;;;;;;;;;;;2086036;28;19941;-67
2022/01/11 03:15:41;;;;;;;;;;;;;;;;;;2088758;28;19960;-67
2022/01/11 03:17:00;;;;;;;;;;;;;;;;;;2086471;28;19917;-67
2022/01/11 03:18:19;;;;;;;;;;;;;;;;;;2084697;28;19991;-67
2022/01/11 03:19:37;;;;;;;;;;;;;;;;;;2083819;28;20340;-67
2022/01/11 03:20:56;;;;;;;;;;;;;;;;;;2085709;28;19913;-67
2022/01/11 03:22:15;;;;;;;;;;;;;;;;;;2087091;28;19909;-67
2022/01/11 03:23:34;;;;;;;;;;;;;;;;;;2086320;28;19913;-67
2022/01/11 03:24:53;;;;;;;;;;;;;;;;;;2086531;28;19913;-67
2022/01/11 03:26:12;;;;;;;;;;;;;;;;;;2085643;28;19921;-67
2022/01/11 03:27:30;;;;;;;;;;;;;;;;;;2085730;28;19909;-67
2022/01/11 03:28:49;;;;;;;;;;;;;;;;;;2085645;28;20354;-67
2022/01/11 03:30:08;;;;;;;;;;;;;;;;;;2088169;28;19919;-67
2022/01/11 03:31:27;;;;;;;;;;;;;;;;;;2088100;28;19920;-67
2022/01/11 03:32:46;;;;;;;;;;;;;;;;;;2088360;28;19988;-67
2022/01/11 03:34:05;;;;;;;;;;;;;;;;;;2087532;28;19909;-67
2022/01/11 03:35:24;;;;;;;;;;;;;;;;;;2083674;28;19916;-67
2022/01/11 03:36:43;;;;;;;;;;;;;;;;;;2088473;28;20379;-67
2022/01/11 03:38:04;;;;;;;;;;;;;;;;;;2087427;28;19913;-67
2022/01/11 03:39:22;;;;;;;;;;;;;;;;;;2086492;28;19999;-67
2022/01/11 03:40:42;;;;;;;;;;;;;;;;;;2087678;28;19914;-67
2022/01/11 03:42:01;;;;;;;;;;;;;;;;;;2087858;28;19963;-67
2022/01/11 03:43:22;;;;;;;;;;;;;;;;;;2088616;28;19948;-68
2022/01/11 03:44:40;;;;;;;;;;;;;;;;;;2085534;28;19908;-67
2022/01/11 03:45:59;;;;;;;;;;;;;;;;;;2087550;28;19921;-67
2022/01/11 03:47:18;;;;;;;;;;;;;;;;;;2087256;28;19912;-68
2022/01/11 03:48:37;;;;;;;;;;;;;;;;;;2086937;28;19942;-67
2022/01/11 03:49:56;;;;;;;;;;;;;;;;;;2090144;28;19908;-67
2022/01/11 03:51:15;;;;;;;;;;;;;;;;;;2089989;28;20008;-67
2022/01/11 03:52:35;;;;;;;;;;;;;;;;;;2089478;28;19913;-67
2022/01/11 03:54:07;;;;;;;;;;;;;;;;;;2098691;28;19939;-67
2022/01/11 03:57:04;;;;;;;;;;;;;;;;;;2086134;28;19965;-67
2022/01/11 03:58:26;;;;;;;;;;;;;;;;;;2087657;28;19909;-67
2022/01/11 03:59:44;;;;;;;;;;;;;;;;;;2086904;28;19916;-67
2022/01/11 04:01:03;;;;;;;;;;;;;;;;;;2087493;28;19952;-67
2022/01/11 04:02:22;;;;;;;;;;;;;;;;;;2089111;28;20275;-67
2022/01/11 04:03:41;;;;;;;;;;;;;;;;;;2089644;28;20003;-67
2022/01/11 04:05:00;;;;;;;;;;;;;;;;;;2091110;28;19913;-67
2022/01/11 04:06:19;;;;;;;;;;;;;;;;;;2090638;28;19916;-67
2022/01/11 04:07:38;;;;;;;;;;;;;;;;;;2086913;28;19909;-67
2022/01/11 04:08:57;;;;;;;;;;;;;;;;;;2088927;28;19925;-67
2022/01/11 04:10:16;;;;;;;;;;;;;;;;;;2090154;28;20302;-67
2022/01/11 04:11:35;;;;;;;;;;;;;;;;;;2088857;28;19913;-66
2022/01/11 04:12:54;;;;;;;;;;;;;;;;;;2088231;28;19913;-67
2022/01/11 04:14:13;;;;;;;;;;;;;;;;;;2086387;28;19995;-66
2022/01/11 04:15:32;;;;;;;;;;;;;;;;;;2087478;28;19921;-66
2022/01/11 04:16:51;;;;;;;;;;;;;;;;;;2086562;28;19913;-67
2022/01/11 04:18:10;;;;;;;;;;;;;;;;;;2087610;28;19912;-67
2022/01/11 04:19:29;;;;;;;;;;;;;;;;;;2089696;28;19917;-67
2022/01/11 04:20:48;;;;;;;;;;;;;;;;;;2087397;28;19948;-67
2022/01/11 04:22:07;;;;;;;;;;;;;;;;;;2087529;28;19925;-66
2022/01/11 04:23:26;;;;;;;;;;;;;;;;;;2088270;28;19909;-67
2022/01/11 04:24:45;;;;;;;;;;;;;;;;;;2089730;28;19949;-66
2022/01/11 04:26:04;;;;;;;;;;;;;;;;;;2089556;28;20262;-66
2022/01/11 04:27:23;;;;;;;;;;;;;;;;;;2089451;28;19986;-66
2022/01/11 04:28:42;;;;;;;;;;;;;;;;;;2088882;28;19916;-66
2022/01/11 04:30:01;;;;;;;;;;;;;;;;;;2089098;28;19979;-66
2022/01/11 04:31:20;;;;;;;;;;;;;;;;;;2087137;28;19909;-65
2022/01/11 04:32:39;;;;;;;;;;;;;;;;;;2088295;28;19917;-65
2022/01/11 04:33:58;;;;;;;;;;;;;;;;;;2088216;28;19972;-66
2022/01/11 04:35:17;;;;;;;;;;;;;;;;;;2088200;28;19912;-69
2022/01/11 04:36:36;;;;;;;;;;;;;;;;;;2086458;28;19916;-66
2022/01/11 04:37:55;;;;;;;;;;;;;;;;;;2086941;28;20345;-66
2022/01/11 04:39:14;;;;;;;;;;;;;;;;;;2087612;28;19913;-66
2022/01/11 04:40:33;;;;;;;;;;;;;;;;;;2083164;28;19948;-66
2022/01/11 04:41:51;;;;;;;;;;;;;;;;;;2083305;28;19909;-66
2022/01/11 04:43:10;;;;;;;;;;;;;;;;;;2086804;28;19913;-66
2022/01/11 04:44:29;;;;;;;;;;;;;;;;;;2088729;28;19916;-66
2022/01/11 04:45:48;;;;;;;;;;;;;;;;;;2086982;28;20351;-66
2022/01/11 04:47:07;;;;;;;;;;;;;;;;;;2086953;28;19920;-67
2022/01/11 04:48:28;;;;;;;;;;;;;;;;;;2086016;28;19921;-67
2022/01/11 04:49:47;;;;;;;;;;;;;;;;;;2086042;28;19912;-67
2022/01/11 04:51:06;;;;;;;;;;;;;;;;;;2087539;28;19909;-67
2022/01/11 04:52:25;;;;;;;;;;;;;;;;;;2087592;28;20340;-67
2022/01/11 04:53:43;;;;;;;;;;;;;;;;;;2087565;28;19960;-66
2022/01/11 04:55:02;;;;;;;;;;;;;;;;;;2087815;28;20313;-66
2022/01/11 04:56:21;;;;;;;;;;;;;;;;;;2086544;28;19910;-66
2022/01/11 04:57:40;;;;;;;;;;;;;;;;;;2086578;28;19921;-66
2022/01/11 04:58:59;;;;;;;;;;;;;;;;;;2087011;28;20313;-66
2022/01/11 05:00:18;;;;;;;;;;;;;;;;;;2087492;28;19956;-66
2022/01/11 05:01:37;;;;;;;;;;;;;;;;;;2088142;28;20277;-66
2022/01/11 05:02:58;;;;;;;;;;;;;;;;;;2085331;28;20007;-66
2022/01/11 05:04:16;;;;;;;;;;;;;;;;;;2082384;28;19921;-68
2022/01/11 05:05:35;;;;;;;;;;;;;;;;;;2089949;28;19912;-66
2022/01/11 05:06:55;;;;;;;;;;;;;;;;;;2088381;28;19917;-68
2022/01/11 05:08:14;;;;;;;;;;;;;;;;;;2088103;28;19917;-67
2022/01/11 05:09:33;;;;;;;;;;;;;;;;;;2089655;28;20354;-68
2022/01/11 05:10:52;;;;;;;;;;;;;;;;;;2089570;28;19940;-68
2022/01/11 05:12:11;;;;;;;;;;;;;;;;;;2088190;28;19913;-67
2022/01/11 05:13:31;;;;;;;;;;;;;;;;;;2085392;28;19913;-68
2022/01/11 05:14:50;;;;;;;;;;;;;;;;;;2087492;28;19952;-67
2022/01/11 05:16:09;;;;;;;;;;;;;;;;;;2088543;28;20363;-66
2022/01/11 05:17:28;;;;;;;;;;;;;;;;;;2086568;28;19909;-68
2022/01/11 05:18:47;;;;;;;;;;;;;;;;;;2085262;28;19940;-68
2022/01/11 05:20:06;;;;;;;;;;;;;;;;;;2088343;28;19913;-68
2022/01/11 05:21:25;;;;;;;;;;;;;;;;;;2088862;28;19995;-68
2022/01/11 05:22:45;;;;;;;;;;;;;;;;;;2088205;28;20294;-68
2022/01/11 05:24:04;;;;;;;;;;;;;;;;;;2085937;28;19910;-68
2022/01/11 05:25:23;;;;;;;;;;;;;;;;;;2089507;28;19909;-68
2022/01/11 05:26:41;;;;;;;;;;;;;;;;;;2086646;28;19909;-68
2022/01/11 05:28:00;;;;;;;;;;;;;;;;;;2086337;28;19965;-68
2022/01/11 05:29:19;;;;;;;;;;;;;;;;;;2089260;28;20390;-67
2022/01/11 05:30:38;;;;;;;;;;;;;;;;;;2088892;28;19909;-67
2022/01/11 05:31:58;;;;;;;;;;;;;;;;;;2088292;28;19909;-67
2022/01/11 05:33:17;;;;;;;;;;;;;;;;;;2086660;28;19913;-67
2022/01/11 05:34:36;;;;;;;;;;;;;;;;;;2084360;28;19917;-67
2022/01/11 05:35:54;;;;;;;;;;;;;;;;;;2085628;28;19924;-66
2022/01/11 05:37:13;;;;;;;;;;;;;;;;;;2089547;28;20410;-67
2022/01/11 05:38:32;;;;;;;;;;;;;;;;;;2087250;28;20359;-67
2022/01/11 05:39:53;;;;;;;;;;;;;;;;;;2085582;28;19913;-67
2022/01/11 05:41:12;;;;;;;;;;;;;;;;;;2087276;28;20363;-67
2022/01/11 05:42:31;;;;;;;;;;;;;;;;;;2088114;28;19908;-67
2022/01/11 05:43:50;;;;;;;;;;;;;;;;;;2088832;28;19913;-66
2022/01/11 05:45:09;;;;;;;;;;;;;;;;;;2086967;28;19917;-67
2022/01/11 05:46:28;;;;;;;;;;;;;;;;;;2086905;28;19912;-67
2022/01/11 05:47:53;;;;;;;;;;;;;;;;;;2086302;28;20348;-68
2022/01/11 05:49:12;;;;;;;;;;;;;;;;;;2087715;28;19917;-67
2022/01/11 05:50:31;;;;;;;;;;;;;;;;;;2087567;28;20374;-66
2022/01/11 05:51:50;;;;;;;;;;;;;;;;;;2085096;28;19913;-66
2022/01/11 05:53:09;;;;;;;;;;;;;;;;;;2084735;28;19913;-71
2022/01/11 05:54:27;;;;;;;;;;;;;;;;;;2084916;28;20114;-66
2022/01/11 05:55:46;;;;;;;;;;;;;;;;;;2084717;28;19956;-66
2022/01/11 05:57:05;;;;;;;;;;;;;;;;;;2085519;28;19909;-68
2022/01/11 05:58:24;;;;;;;;;;;;;;;;;;2085933;28;19917;-67
2022/01/11 05:59:43;;;;;;;;;;;;;;;;;;2084253;28;20378;-66
2022/01/11 06:01:02;;;;;;;;;;;;;;;;;;2085206;28;19913;-69
2022/01/11 06:02:21;;;;;;;;;;;;;;;;;;2085533;28;19909;-67
2022/01/11 06:03:39;;;;;;;;;;;;;;;;;;2086953;28;20359;-68
2022/01/11 06:04:58;;;;;;;;;;;;;;;;;;2085744;28;19917;-66
2022/01/11 06:06:17;;;;;;;;;;;;;;;;;;2087715;28;19913;-66
2022/01/11 06:07:37;;;;;;;;;;;;;;;;;;2086113;28;19952;-68
2022/01/11 06:08:56;;;;;;;;;;;;;;;;;;2085709;28;20359;-68
2022/01/11 06:10:15;;;;;;;;;;;;;;;;;;2085204;28;20011;-68
2022/01/11 06:11:33;;;;;;;;;;;;;;;;;;2083485;28;20004;-68
2022/01/11 06:12:52;;;;;;;;;;;;;;;;;;2087586;28;19909;-68
2022/01/11 06:14:11;;;;;;;;;;;;;;;;;;2087581;28;19913;-68
2022/01/11 06:15:30;;;;;;;;;;;;;;;;;;2086561;28;19944;-67
2022/01/11 06:16:49;;;;;;;;;;;;;;;;;;2084832;28;19924;-68
2022/01/11 06:18:08;;;;;;;;;;;;;;;;;;2085478;28;20379;-67
2022/01/11 06:19:27;;;;;;;;;;;;;;;;;;2087760;28;19913;-67
2022/01/11 06:20:46;;;;;;;;;;;;;;;;;;2087198;28;19909;-65
2022/01/11 06:22:05;;;;;;;;;;;;;;;;;;2087604;28;19920;-67
2022/01/11 06:23:24;;;;;;;;;;;;;;;;;;2087568;28;19912;-67
2022/01/11 06:24:43;;;;;;;;;;;;;;;;;;2088331;28;19916;-68
2022/01/11 06:26:02;;;;;;;;;;;;;;;;;;2088080;28;19909;-68
2022/01/11 06:27:21;;;;;;;;;;;;;;;;;;2086359;28;20290;-67
2022/01/11 06:28:40;;;;;;;;;;;;;;;;;;2085530;28;19957;-67
2022/01/11 06:29:59;;;;;;;;;;;;;;;;;;2087644;28;19917;-67
2022/01/11 06:31:17;;;;;;;;;;;;;;;;;;2086603;28;19908;-68
2022/01/11 06:32:36;;;;;;;;;;;;;;;;;;2084244;28;20012;-67
2022/01/11 06:33:55;;;;;;;;;;;;;;;;;;2084316;28;19921;-67
2022/01/11 06:35:14;;;;;;;;;;;;;;;;;;2087726;28;19913;-68
2022/01/11 06:36:33;;;;;;;;;;;;;;;;;;2087264;28;19956;-67
2022/01/11 06:37:52;;;;;;;;;;;;;;;;;;2088124;28;19913;-67
2022/01/11 06:39:11;;;;;;;;;;;;;;;;;;2087152;28;19909;-67
2022/01/11 06:40:29;;;;;;;;;;;;;;;;;;2085269;28;19917;-67
2022/01/11 06:41:48;;;;;;;;;;;;;;;;;;2087891;28;20004;-67
2022/01/11 06:43:07;;;;;;;;;;;;;;;;;;2088205;28;19909;-67
2022/01/11 06:44:26;;;;;;;;;;;;;;;;;;2089159;28;20450;-68
2022/01/11 06:45:45;;;;;;;;;;;;;;;;;;2086350;28;19947;-67
2022/01/11 06:47:05;;;;;;;;;;;;;;;;;;2088906;28;20398;-67
2022/01/11 06:48:24;;;;;;;;;;;;;;;;;;2083615;28;19952;-67
2022/01/11 06:49:42;;;;;;;;;;;;;;;;;;2088711;28;19909;-68
2022/01/11 06:51:01;;;;;;;;;;;;;;;;;;2085958;28;19913;-67
2022/01/11 06:52:20;;;;;;;;;;;;;;;;;;2085708;28;19909;-67
2022/01/11 06:53:39;;;;;;;;;;;;;;;;;;2089315;28;19917;-67
2022/01/11 06:54:58;;;;;;;;;;;;;;;;;;2087473;28;20346;-68
2022/01/11 06:56:17;;;;;;;;;;;;;;;;;;2084430;28;19909;-67
2022/01/11 06:57:36;;;;;;;;;;;;;;;;;;2082597;28;19913;-67
2022/01/11 06:58:55;;;;;;;;;;;;;;;;;;2085672;28;19921;-68
2022/01/11 07:00:14;;;;;;;;;;;;;;;;;;2085739;28;20422;-67
2022/01/11 07:01:34;;;;;;;;;;;;;;;;;;2086293;28;20031;-67
2022/01/11 07:02:53;;;;;;;;;;;;;;;;;;2086850;28;19946;-67
2022/01/11 07:04:12;;;;;;;;;;;;;;;;;;2086857;28;19916;-68
2022/01/11 07:05:31;;;;;;;;;;;;;;;;;;2087166;28;20012;-68
2022/01/11 07:06:51;;;;;;;;;;;;;;;;;;2086630;28;19908;-67
2022/01/11 07:08:09;;;;;;;;;;;;;;;;;;2086766;28;19913;-68
2022/01/11 07:09:28;;;;;;;;;;;;;;;;;;2087036;28;19921;-67
2022/01/11 07:10:47;;;;;;;;;;;;;;;;;;2089335;28;20294;-67
2022/01/11 07:12:06;;;;;;;;;;;;;;;;;;2087032;28;20382;-65
2022/01/11 07:13:25;;;;;;;;;;;;;;;;;;2087636;28;19909;-68
2022/01/11 07:14:44;;;;;;;;;;;;;;;;;;2087492;28;19913;-68
2022/01/11 07:16:03;;;;;;;;;;;;;;;;;;2087567;28;19968;-68
2022/01/11 07:17:23;;;;;;;;;;;;;;;;;;2087582;28;19917;-67
2022/01/11 07:18:41;;;;;;;;;;;;;;;;;;2087643;28;19948;-67
2022/01/11 07:20:00;;;;;;;;;;;;;;;;;;2087721;28;19913;-68
2022/01/11 07:21:19;;;;;;;;;;;;;;;;;;2088561;28;19925;-67
2022/01/11 07:22:38;;;;;;;;;;;;;;;;;;2087329;28;20324;-67
2022/01/11 07:23:57;;;;;;;;;;;;;;;;;;2088554;28;19917;-68
2022/01/11 07:25:16;;;;;;;;;;;;;;;;;;2088193;28;20001;-67
2022/01/11 07:26:35;;;;;;;;;;;;;;;;;;2088782;28;19960;-68
2022/01/11 07:27:54;;;;;;;;;;;;;;;;;;2091234;28;19909;-67
2022/01/11 07:29:13;;;;;;;;;;;;;;;;;;2088349;28;19917;-68
2022/01/11 07:30:32;;;;;;;;;;;;;;;;;;2083155;28;19913;-67
2022/01/11 07:31:51;;;;;;;;;;;;;;;;;;2088775;28;19987;-67
2022/01/11 07:33:10;;;;;;;;;;;;;;;;;;2089164;28;20008;-69
2022/01/11 07:34:29;;;;;;;;;;;;;;;;;;2088907;28;20007;-67
2022/01/11 07:35:48;;;;;;;;;;;;;;;;;;2088876;28;19913;-67
2022/01/11 07:37:07;;;;;;;;;;;;;;;;;;2089122;28;19909;-67
2022/01/11 07:38:26;;;;;;;;;;;;;;;;;;2089369;28;20351;-67
2022/01/11 07:39:44;;;;;;;;;;;;;;;;;;2086740;28;20023;-67
2022/01/11 07:41:05;;;;;;;;;;;;;;;;;;2089272;28;19914;-67
2022/01/11 07:42:23;;;;;;;;;;;;;;;;;;2089712;28;20487;-67
2022/01/11 07:43:42;;;;;;;;;;;;;;;;;;2090007;28;19909;-67
2022/01/11 07:45:01;;;;;;;;;;;;;;;;;;2088417;28;20158;-67
2022/01/11 07:46:20;;;;;;;;;;;;;;;;;;2088129;28;19913;-67
2022/01/11 07:47:39;;;;;;;;;;;;;;;;;;2090698;28;20365;-65
2022/01/11 07:48:59;;;;;;;;;;;;;;;;;;2089035;28;19913;-64
2022/01/11 07:50:18;;;;;;;;;;;;;;;;;;2089514;28;19912;-64
2022/01/11 07:51:37;;;;;;;;;;;;;;;;;;2090265;28;20493;-64
2022/01/11 07:52:56;;;;;;;;;;;;;;;;;;2090518;28;19954;-63
2022/01/11 07:54:15;;;;;;;;;;;;;;;;;;2090268;28;19913;-63
2022/01/11 07:55:34;;;;;;;;;;;;;;;;;;2088598;28;19917;-63
2022/01/11 07:56:53;;;;;;;;;;;;;;;;;;2088157;28;19913;-64
2022/01/11 07:58:12;;;;;;;;;;;;;;;;;;2089270;28;19946;-64
2022/01/11 07:59:31;;;;;;;;;;;;;;;;;;2089350;28;19913;-64
2022/01/11 08:00:50;;;;;;;;;;;;;;;;;;2089545;28;19909;-64
2022/01/11 08:02:08;;;;;;;;;;;;;;;;;;2088464;28;19912;-64
2022/01/11 08:03:27;;;;;;;;;;;;;;;;;;2089116;28;20004;-64
2022/01/11 08:04:46;;;;;;;;;;;;;;;;;;2090028;28;19917;-64
2022/01/11 08:06:05;;;;;;;;;;;;;;;;;;2087968;28;19913;-64
2022/01/11 08:07:24;;;;;;;;;;;;;;;;;;2087469;28;19909;-64
2022/01/11 08:08:43;;;;;;;;;;;;;;;;;;2086686;28;19921;-64
2022/01/11 08:10:02;;;;;;;;;;;;;;;;;;2087313;28;19929;-64
2022/01/11 08:11:20;;;;;;;;;;;;;;;;;;2088122;28;19942;-65
2022/01/11 08:12:39;;;;;;;;;;;;;;;;;;2087639;28;19920;-64
2022/01/11 08:13:58;;;;;;;;;;;;;;;;;;2086745;28;19952;-64
2022/01/11 08:15:18;;;;;;;;;;;;;;;;;;2088363;28;19917;-65
2022/01/11 08:16:36;;;;;;;;;;;;;;;;;;2086795;28;20362;-66
2022/01/11 08:17:55;;;;;;;;;;;;;;;;;;2086399;28;19921;-64
2022/01/11 08:19:14;;;;;;;;;;;;;;;;;;2087394;28;20370;-64
2022/01/11 08:20:33;;;;;;;;;;;;;;;;;;2085409;28;20382;-64
2022/01/11 08:21:53;;;;;;;;;;;;;;;;;;2084547;28;19913;-66
2022/01/11 08:23:12;;;;;;;;;;;;;;;;;;2085543;28;19920;-63
2022/01/11 08:24:31;;;;;;;;;;;;;;;;;;2087272;28;20418;-66
2022/01/11 08:25:50;;;;;;;;;;;;;;;;;;2086034;28;19916;-65
2022/01/11 08:27:08;;;;;;;;;;;;;;;;;;2087376;28;19913;-64
2022/01/11 08:28:27;;;;;;;;;;;;;;;;;;2083477;28;19921;-62
2022/01/11 08:29:46;;;;;;;;;;;;;;;;;;2085870;28;19913;-63
2022/01/11 08:31:05;;;;;;;;;;;;;;;;;;2086084;28;19921;-65
2022/01/11 08:32:24;;;;;;;;;;;;;;;;;;2088050;28;19905;-65
2022/01/11 08:33:43;;;;;;;;;;;;;;;;;;2088357;28;19908;-65
2022/01/11 08:35:02;;;;;;;;;;;;;;;;;;2088423;28;20337;-64
2022/01/11 08:36:21;;;;;;;;;;;;;;;;;;2086272;28;20358;-64
2022/01/11 08:37:40;;;;;;;;;;;;;;;;;;2088228;28;19916;-63
2022/01/11 08:38:59;;;;;;;;;;;;;;;;;;2088468;28;20831;-63
2022/01/11 08:40:18;;;;;;;;;;;;;;;;;;2087606;28;20386;-64
2022/01/11 08:41:37;;;;;;;;;;;;;;;;;;2087312;28;19913;-65
2022/01/11 08:42:56;;;;;;;;;;;;;;;;;;2087959;28;19956;-63
2022/01/11 08:44:15;;;;;;;;;;;;;;;;;;2089068;28;19908;-63
2022/01/11 08:45:34;;;;;;;;;;;;;;;;;;2089383;28;19908;-63
2022/01/11 08:46:54;;;;;;;;;;;;;;;;;;2087134;28;19913;-63
2022/01/11 08:48:12;;;;;;;;;;;;;;;;;;2086721;28;19913;-63
2022/01/11 08:49:31;;;;;;;;;;;;;;;;;;2089164;28;19913;-64
2022/01/11 08:50:53;;;;;;;;;;;;;;;;;;2086698;28;19909;-65
2022/01/11 08:52:12;;;;;;;;;;;;;;;;;;2087788;28;19908;-63
2022/01/11 08:53:31;;;;;;;;;;;;;;;;;;2088392;28;19953;-62
2022/01/11 08:54:50;;;;;;;;;;;;;;;;;;2089980;28;19909;-63
2022/01/11 08:56:11;;;;;;;;;;;;;;;;;;2088573;28;19917;-63
2022/01/11 08:57:30;;;;;;;;;;;;;;;;;;2086169;28;19912;-63
2022/01/11 08:58:48;;;;;;;;;;;;;;;;;;2087435;28;19913;-63
2022/01/11 09:00:10;;;;;;;;;;;;;;;;;;2090883;28;19908;-65
2022/01/11 09:01:28;;;;;;;;;;;;;;;;;;2087842;28;19913;-63
2022/01/11 09:02:47;;;;;;;;;;;;;;;;;;2092496;28;19909;-63
2022/01/11 09:04:06;;;;;;;;;;;;;;;;;;2087343;28;20381;-63
2022/01/11 09:05:25;;;;;;;;;;;;;;;;;;2086990;28;20575;-62